sensor_id;sensor_type;location;lat;lon;timestamp;P1;durP1;ratioP1;P2;durP2;ratioP2
62125;SDS011;48112;53.282;6.150;2022-08-19T00:00:17;0.40;;;0.40;;
62125;SDS011;48112;53.282;6.150;2022-08-19T00:01:20;0.30;;;0.30;;
62125;SDS011;48112;53.282;6.150;2022-08-19T00:02:30;0.30;;;0.30;;
62125;SDS011;48112;53.282;6.150;2022-08-19T00:03:33;0.30;;;0.30;;
62125;SDS011;48112;53.282;6.150;2022-08-19T00:04:37;0.40;;;0.40;;
62125;SDS011;48112;53.282;6.150;2022-08-19T00:05:39;0.38;;;0.38;;
62125;SDS011;48112;53.282;6.150;2022-08-19T00:06:44;0.40;;;0.40;;
62125;SDS011;48112;53.282;6.150;2022-08-19T00:07:47;0.30;;;0.30;;
62125;SDS011;48112;53.282;6.150;2022-08-19T00:08:50;0.35;;;0.35;;
62125;SDS011;48112;53.282;6.150;2022-08-19T00:09:52;0.40;;;0.40;;
62125;SDS011;48112;53.282;6.150;2022-08-19T00:10:57;0.30;;;0.30;;
62125;SDS011;48112;53.282;6.150;2022-08-19T00:11:59;0.22;;;0.22;;
62125;SDS011;48112;53.282;6.150;2022-08-19T00:13:02;0.30;;;0.30;;
62125;SDS011;48112;53.282;6.150;2022-08-19T00:14:06;0.40;;;0.40;;
62125;SDS011;48112;53.282;6.150;2022-08-19T00:15:11;0.30;;;0.30;;
62125;SDS011;48112;53.282;6.150;2022-08-19T00:16:15;0.35;;;0.35;;
62125;SDS011;48112;53.282;6.150;2022-08-19T00:17:26;0.30;;;0.30;;
62125;SDS011;48112;53.282;6.150;2022-08-19T00:18:28;0.40;;;0.40;;
62125;SDS011;48112;53.282;6.150;2022-08-19T00:19:31;0.30;;;0.30;;
62125;SDS011;48112;53.282;6.150;2022-08-19T00:20:35;0.30;;;0.30;;
62125;SDS011;48112;53.282;6.150;2022-08-19T00:21:41;0.30;;;0.30;;
62125;SDS011;48112;53.282;6.150;2022-08-19T00:22:44;0.30;;;0.30;;
62125;SDS011;48112;53.282;6.150;2022-08-19T00:23:48;0.30;;;0.30;;
62125;SDS011;48112;53.282;6.150;2022-08-19T00:24:50;0.30;;;0.30;;
62125;SDS011;48112;53.282;6.150;2022-08-19T00:25:55;0.40;;;0.40;;
62125;SDS011;48112;53.282;6.150;2022-08-19T00:26:57;0.40;;;0.40;;
62125;SDS011;48112;53.282;6.150;2022-08-19T00:28:20;0.30;;;0.30;;
62125;SDS011;48112;53.282;6.150;2022-08-19T00:29:24;0.30;;;0.30;;
62125;SDS011;48112;53.282;6.150;2022-08-19T00:30:26;0.30;;;0.30;;
62125;SDS011;48112;53.282;6.150;2022-08-19T00:31:29;0.30;;;0.30;;
62125;SDS011;48112;53.282;6.150;2022-08-19T00:32:32;0.38;;;0.38;;
62125;SDS011;48112;53.282;6.150;2022-08-19T00:33:35;0.30;;;0.30;;
62125;SDS011;48112;53.282;6.150;2022-08-19T00:34:38;0.40;;;0.40;;
62125;SDS011;48112;53.282;6.150;2022-08-19T00:35:42;0.40;;;0.40;;
62125;SDS011;48112;53.282;6.150;2022-08-19T00:36:44;0.40;;;0.40;;
62125;SDS011;48112;53.282;6.150;2022-08-19T00:37:47;0.40;;;0.40;;
62125;SDS011;48112;53.282;6.150;2022-08-19T00:38:50;0.30;;;0.30;;
62125;SDS011;48112;53.282;6.150;2022-08-19T00:39:54;0.30;;;0.30;;
62125;SDS011;48112;53.282;6.150;2022-08-19T00:40:57;0.40;;;0.40;;
62125;SDS011;48112;53.282;6.150;2022-08-19T00:42:00;0.35;;;0.35;;
62125;SDS011;48112;53.282;6.150;2022-08-19T00:43:07;0.38;;;0.38;;
62125;SDS011;48112;53.282;6.150;2022-08-19T00:44:11;0.30;;;0.30;;
62125;SDS011;48112;53.282;6.150;2022-08-19T00:45:17;0.40;;;0.40;;
62125;SDS011;48112;53.282;6.150;2022-08-19T00:46:22;0.30;;;0.30;;
62125;SDS011;48112;53.282;6.150;2022-08-19T00:47:24;0.35;;;0.35;;
62125;SDS011;48112;53.282;6.150;2022-08-19T00:48:27;0.30;;;0.30;;
62125;SDS011;48112;53.282;6.150;2022-08-19T00:49:31;0.30;;;0.30;;
62125;SDS011;48112;53.282;6.150;2022-08-19T00:50:36;0.30;;;0.30;;
62125;SDS011;48112;53.282;6.150;2022-08-19T00:51:55;0.30;;;0.30;;
62125;SDS011;48112;53.282;6.150;2022-08-19T00:53:02;0.40;;;0.40;;
62125;SDS011;48112;53.282;6.150;2022-08-19T00:54:05;0.40;;;0.40;;
62125;SDS011;48112;53.282;6.150;2022-08-19T00:55:08;0.30;;;0.30;;
62125;SDS011;48112;53.282;6.150;2022-08-19T00:56:13;0.40;;;0.40;;
62125;SDS011;48112;53.282;6.150;2022-08-19T00:57:17;0.40;;;0.40;;
62125;SDS011;48112;53.282;6.150;2022-08-19T00:58:24;0.40;;;0.40;;
62125;SDS011;48112;53.282;6.150;2022-08-19T00:59:31;0.30;;;0.30;;
62125;SDS011;48112;53.282;6.150;2022-08-19T01:00:57;0.45;;;0.45;;
62125;SDS011;48112;53.282;6.150;2022-08-19T01:02:00;0.30;;;0.30;;
62125;SDS011;48112;53.282;6.150;2022-08-19T01:03:02;0.40;;;0.40;;
62125;SDS011;48112;53.282;6.150;2022-08-19T01:04:05;0.40;;;0.40;;
62125;SDS011;48112;53.282;6.150;2022-08-19T01:05:09;0.30;;;0.30;;
62125;SDS011;48112;53.282;6.150;2022-08-19T01:06:13;0.35;;;0.35;;
62125;SDS011;48112;53.282;6.150;2022-08-19T01:07:22;0.32;;;0.32;;
62125;SDS011;48112;53.282;6.150;2022-08-19T01:08:25;0.40;;;0.40;;
62125;SDS011;48112;53.282;6.150;2022-08-19T01:09:27;0.40;;;0.40;;
62125;SDS011;48112;53.282;6.150;2022-08-19T01:10:32;0.40;;;0.40;;
62125;SDS011;48112;53.282;6.150;2022-08-19T01:11:38;0.40;;;0.40;;
62125;SDS011;48112;53.282;6.150;2022-08-19T01:12:45;0.40;;;0.40;;
62125;SDS011;48112;53.282;6.150;2022-08-19T01:13:48;0.40;;;0.40;;
62125;SDS011;48112;53.282;6.150;2022-08-19T01:14:52;0.40;;;0.40;;
62125;SDS011;48112;53.282;6.150;2022-08-19T01:15:56;0.40;;;0.40;;
62125;SDS011;48112;53.282;6.150;2022-08-19T01:17:02;0.40;;;0.40;;
62125;SDS011;48112;53.282;6.150;2022-08-19T01:18:06;0.40;;;0.40;;
62125;SDS011;48112;53.282;6.150;2022-08-19T01:19:13;0.38;;;0.38;;
62125;SDS011;48112;53.282;6.150;2022-08-19T01:20:21;0.40;;;0.40;;
62125;SDS011;48112;53.282;6.150;2022-08-19T01:21:26;0.35;;;0.35;;
62125;SDS011;48112;53.282;6.150;2022-08-19T01:22:34;0.40;;;0.40;;
62125;SDS011;48112;53.282;6.150;2022-08-19T01:23:43;0.30;;;0.30;;
62125;SDS011;48112;53.282;6.150;2022-08-19T01:24:47;0.30;;;0.30;;
62125;SDS011;48112;53.282;6.150;2022-08-19T01:25:51;0.40;;;0.40;;
62125;SDS011;48112;53.282;6.150;2022-08-19T01:26:56;0.30;;;0.30;;
62125;SDS011;48112;53.282;6.150;2022-08-19T01:27:58;0.40;;;0.40;;
62125;SDS011;48112;53.282;6.150;2022-08-19T01:29:11;0.30;;;0.30;;
62125;SDS011;48112;53.282;6.150;2022-08-19T01:30:17;0.40;;;0.40;;
62125;SDS011;48112;53.282;6.150;2022-08-19T01:31:24;0.40;;;0.40;;
62125;SDS011;48112;53.282;6.150;2022-08-19T01:32:33;0.30;;;0.30;;
62125;SDS011;48112;53.282;6.150;2022-08-19T01:33:36;0.40;;;0.40;;
62125;SDS011;48112;53.282;6.150;2022-08-19T01:34:39;0.30;;;0.30;;
62125;SDS011;48112;53.282;6.150;2022-08-19T01:35:41;0.30;;;0.30;;
62125;SDS011;48112;53.282;6.150;2022-08-19T01:36:45;0.30;;;0.30;;
62125;SDS011;48112;53.282;6.150;2022-08-19T01:37:50;0.30;;;0.30;;
62125;SDS011;48112;53.282;6.150;2022-08-19T01:38:56;0.40;;;0.40;;
62125;SDS011;48112;53.282;6.150;2022-08-19T01:39:59;0.32;;;0.32;;
62125;SDS011;48112;53.282;6.150;2022-08-19T01:41:06;0.40;;;0.40;;
62125;SDS011;48112;53.282;6.150;2022-08-19T01:42:11;0.50;;;0.50;;
62125;SDS011;48112;53.282;6.150;2022-08-19T01:43:14;0.40;;;0.40;;
62125;SDS011;48112;53.282;6.150;2022-08-19T01:44:16;0.40;;;0.40;;
62125;SDS011;48112;53.282;6.150;2022-08-19T01:45:22;0.40;;;0.40;;
62125;SDS011;48112;53.282;6.150;2022-08-19T01:46:26;0.38;;;0.38;;
62125;SDS011;48112;53.282;6.150;2022-08-19T01:47:29;0.40;;;0.40;;
62125;SDS011;48112;53.282;6.150;2022-08-19T01:48:35;0.40;;;0.40;;
62125;SDS011;48112;53.282;6.150;2022-08-19T01:49:40;0.40;;;0.40;;
62125;SDS011;48112;53.282;6.150;2022-08-19T01:50:43;0.40;;;0.40;;
62125;SDS011;48112;53.282;6.150;2022-08-19T01:51:45;0.30;;;0.30;;
62125;SDS011;48112;53.282;6.150;2022-08-19T01:52:49;0.40;;;0.40;;
62125;SDS011;48112;53.282;6.150;2022-08-19T01:54:08;0.40;;;0.40;;
62125;SDS011;48112;53.282;6.150;2022-08-19T01:55:11;0.40;;;0.40;;
62125;SDS011;48112;53.282;6.150;2022-08-19T01:56:15;0.45;;;0.45;;
62125;SDS011;48112;53.282;6.150;2022-08-19T01:57:19;0.40;;;0.40;;
62125;SDS011;48112;53.282;6.150;2022-08-19T01:58:22;0.40;;;0.40;;
62125;SDS011;48112;53.282;6.150;2022-08-19T01:59:31;0.40;;;0.40;;
62125;SDS011;48112;53.282;6.150;2022-08-19T02:00:33;0.40;;;0.40;;
62125;SDS011;48112;53.282;6.150;2022-08-19T02:01:36;0.40;;;0.40;;
62125;SDS011;48112;53.282;6.150;2022-08-19T02:02:38;0.30;;;0.30;;
62125;SDS011;48112;53.282;6.150;2022-08-19T02:03:44;0.50;;;0.50;;
62125;SDS011;48112;53.282;6.150;2022-08-19T02:04:47;0.50;;;0.50;;
62125;SDS011;48112;53.282;6.150;2022-08-19T02:05:53;0.43;;;0.43;;
62125;SDS011;48112;53.282;6.150;2022-08-19T02:06:57;0.40;;;0.40;;
62125;SDS011;48112;53.282;6.150;2022-08-19T02:08:02;0.40;;;0.40;;
62125;SDS011;48112;53.282;6.150;2022-08-19T02:09:07;0.50;;;0.50;;
62125;SDS011;48112;53.282;6.150;2022-08-19T02:10:12;0.50;;;0.50;;
62125;SDS011;48112;53.282;6.150;2022-08-19T02:11:18;0.40;;;0.40;;
62125;SDS011;48112;53.282;6.150;2022-08-19T02:12:22;0.47;;;0.47;;
62125;SDS011;48112;53.282;6.150;2022-08-19T02:13:25;0.40;;;0.40;;
62125;SDS011;48112;53.282;6.150;2022-08-19T02:14:28;0.40;;;0.40;;
62125;SDS011;48112;53.282;6.150;2022-08-19T02:15:30;0.30;;;0.30;;
62125;SDS011;48112;53.282;6.150;2022-08-19T02:16:33;0.50;;;0.50;;
62125;SDS011;48112;53.282;6.150;2022-08-19T02:17:36;0.40;;;0.40;;
62125;SDS011;48112;53.282;6.150;2022-08-19T02:18:39;0.40;;;0.40;;
62125;SDS011;48112;53.282;6.150;2022-08-19T02:19:41;0.40;;;0.40;;
62125;SDS011;48112;53.282;6.150;2022-08-19T02:20:44;0.43;;;0.43;;
62125;SDS011;48112;53.282;6.150;2022-08-19T02:21:48;0.40;;;0.40;;
62125;SDS011;48112;53.282;6.150;2022-08-19T02:22:51;0.40;;;0.40;;
62125;SDS011;48112;53.282;6.150;2022-08-19T02:23:55;0.40;;;0.40;;
62125;SDS011;48112;53.282;6.150;2022-08-19T02:24:58;0.30;;;0.30;;
62125;SDS011;48112;53.282;6.150;2022-08-19T02:26:01;0.40;;;0.40;;
62125;SDS011;48112;53.282;6.150;2022-08-19T02:27:04;0.38;;;0.38;;
62125;SDS011;48112;53.282;6.150;2022-08-19T02:28:07;0.40;;;0.40;;
62125;SDS011;48112;53.282;6.150;2022-08-19T02:29:10;0.40;;;0.40;;
62125;SDS011;48112;53.282;6.150;2022-08-19T02:30:13;0.40;;;0.40;;
62125;SDS011;48112;53.282;6.150;2022-08-19T02:31:19;0.40;;;0.40;;
62125;SDS011;48112;53.282;6.150;2022-08-19T02:32:26;0.40;;;0.40;;
62125;SDS011;48112;53.282;6.150;2022-08-19T02:33:29;0.40;;;0.40;;
62125;SDS011;48112;53.282;6.150;2022-08-19T02:34:31;0.40;;;0.40;;
62125;SDS011;48112;53.282;6.150;2022-08-19T02:35:34;0.40;;;0.40;;
62125;SDS011;48112;53.282;6.150;2022-08-19T02:36:36;0.40;;;0.40;;
62125;SDS011;48112;53.282;6.150;2022-08-19T02:37:43;0.40;;;0.40;;
62125;SDS011;48112;53.282;6.150;2022-08-19T02:39:05;0.40;;;0.40;;
62125;SDS011;48112;53.282;6.150;2022-08-19T02:40:07;0.40;;;0.40;;
62125;SDS011;48112;53.282;6.150;2022-08-19T02:41:17;0.40;;;0.40;;
62125;SDS011;48112;53.282;6.150;2022-08-19T02:42:27;0.50;;;0.50;;
62125;SDS011;48112;53.282;6.150;2022-08-19T02:43:29;0.40;;;0.40;;
62125;SDS011;48112;53.282;6.150;2022-08-19T02:44:38;0.40;;;0.40;;
62125;SDS011;48112;53.282;6.150;2022-08-19T02:45:40;0.40;;;0.40;;
62125;SDS011;48112;53.282;6.150;2022-08-19T02:46:44;0.40;;;0.40;;
62125;SDS011;48112;53.282;6.150;2022-08-19T02:47:48;0.50;;;0.50;;
62125;SDS011;48112;53.282;6.150;2022-08-19T02:48:51;0.40;;;0.40;;
62125;SDS011;48112;53.282;6.150;2022-08-19T02:49:55;0.40;;;0.40;;
62125;SDS011;48112;53.282;6.150;2022-08-19T02:50:57;0.50;;;0.50;;
62125;SDS011;48112;53.282;6.150;2022-08-19T02:52:00;0.40;;;0.40;;
62125;SDS011;48112;53.282;6.150;2022-08-19T02:53:03;0.50;;;0.50;;
62125;SDS011;48112;53.282;6.150;2022-08-19T02:54:09;0.40;;;0.40;;
62125;SDS011;48112;53.282;6.150;2022-08-19T02:55:12;0.40;;;0.40;;
62125;SDS011;48112;53.282;6.150;2022-08-19T02:56:16;0.40;;;0.40;;
62125;SDS011;48112;53.282;6.150;2022-08-19T02:57:18;0.40;;;0.40;;
62125;SDS011;48112;53.282;6.150;2022-08-19T02:58:22;0.40;;;0.40;;
62125;SDS011;48112;53.282;6.150;2022-08-19T02:59:25;0.40;;;0.40;;
62125;SDS011;48112;53.282;6.150;2022-08-19T03:00:31;0.40;;;0.40;;
62125;SDS011;48112;53.282;6.150;2022-08-19T03:01:34;0.30;;;0.30;;
62125;SDS011;48112;53.282;6.150;2022-08-19T03:02:38;0.40;;;0.40;;
62125;SDS011;48112;53.282;6.150;2022-08-19T03:03:40;0.40;;;0.40;;
62125;SDS011;48112;53.282;6.150;2022-08-19T03:04:43;0.40;;;0.40;;
62125;SDS011;48112;53.282;6.150;2022-08-19T03:05:45;0.30;;;0.30;;
62125;SDS011;48112;53.282;6.150;2022-08-19T03:06:57;0.40;;;0.40;;
62125;SDS011;48112;53.282;6.150;2022-08-19T03:08:11;0.40;;;0.40;;
62125;SDS011;48112;53.282;6.150;2022-08-19T03:09:17;0.50;;;0.50;;
62125;SDS011;48112;53.282;6.150;2022-08-19T03:10:20;0.40;;;0.40;;
62125;SDS011;48112;53.282;6.150;2022-08-19T03:11:24;0.30;;;0.30;;
62125;SDS011;48112;53.282;6.150;2022-08-19T03:12:29;0.40;;;0.40;;
62125;SDS011;48112;53.282;6.150;2022-08-19T03:13:31;0.43;;;0.43;;
62125;SDS011;48112;53.282;6.150;2022-08-19T03:14:34;0.40;;;0.40;;
62125;SDS011;48112;53.282;6.150;2022-08-19T03:15:41;0.40;;;0.40;;
62125;SDS011;48112;53.282;6.150;2022-08-19T03:16:45;0.40;;;0.40;;
62125;SDS011;48112;53.282;6.150;2022-08-19T03:17:48;0.30;;;0.30;;
62125;SDS011;48112;53.282;6.150;2022-08-19T03:18:52;0.40;;;0.40;;
62125;SDS011;48112;53.282;6.150;2022-08-19T03:19:56;0.40;;;0.40;;
62125;SDS011;48112;53.282;6.150;2022-08-19T03:20:58;0.40;;;0.40;;
62125;SDS011;48112;53.282;6.150;2022-08-19T03:22:01;0.40;;;0.40;;
62125;SDS011;48112;53.282;6.150;2022-08-19T03:23:05;0.50;;;0.50;;
62125;SDS011;48112;53.282;6.150;2022-08-19T03:24:08;0.50;;;0.50;;
62125;SDS011;48112;53.282;6.150;2022-08-19T03:25:12;0.40;;;0.40;;
62125;SDS011;48112;53.282;6.150;2022-08-19T03:26:15;0.40;;;0.40;;
62125;SDS011;48112;53.282;6.150;2022-08-19T03:27:18;0.40;;;0.40;;
62125;SDS011;48112;53.282;6.150;2022-08-19T03:28:21;0.40;;;0.40;;
62125;SDS011;48112;53.282;6.150;2022-08-19T03:29:23;0.40;;;0.40;;
62125;SDS011;48112;53.282;6.150;2022-08-19T03:30:31;0.40;;;0.40;;
62125;SDS011;48112;53.282;6.150;2022-08-19T03:31:34;0.40;;;0.40;;
62125;SDS011;48112;53.282;6.150;2022-08-19T03:32:46;0.40;;;0.40;;
62125;SDS011;48112;53.282;6.150;2022-08-19T03:33:53;0.40;;;0.40;;
62125;SDS011;48112;53.282;6.150;2022-08-19T03:34:57;0.40;;;0.40;;
62125;SDS011;48112;53.282;6.150;2022-08-19T03:36:00;0.35;;;0.35;;
62125;SDS011;48112;53.282;6.150;2022-08-19T03:37:05;0.40;;;0.40;;
62125;SDS011;48112;53.282;6.150;2022-08-19T03:38:08;0.50;;;0.50;;
62125;SDS011;48112;53.282;6.150;2022-08-19T03:39:10;0.40;;;0.40;;
62125;SDS011;48112;53.282;6.150;2022-08-19T03:40:14;0.40;;;0.40;;
62125;SDS011;48112;53.282;6.150;2022-08-19T03:41:17;0.43;;;0.43;;
62125;SDS011;48112;53.282;6.150;2022-08-19T03:42:22;0.40;;;0.40;;
62125;SDS011;48112;53.282;6.150;2022-08-19T03:43:44;0.40;;;0.40;;
62125;SDS011;48112;53.282;6.150;2022-08-19T03:44:50;0.50;;;0.50;;
62125;SDS011;48112;53.282;6.150;2022-08-19T03:45:59;0.40;;;0.40;;
62125;SDS011;48112;53.282;6.150;2022-08-19T03:47:05;0.40;;;0.40;;
62125;SDS011;48112;53.282;6.150;2022-08-19T03:48:07;0.40;;;0.40;;
62125;SDS011;48112;53.282;6.150;2022-08-19T03:49:10;0.43;;;0.43;;
62125;SDS011;48112;53.282;6.150;2022-08-19T03:50:15;0.50;;;0.50;;
62125;SDS011;48112;53.282;6.150;2022-08-19T03:51:19;0.40;;;0.40;;
62125;SDS011;48112;53.282;6.150;2022-08-19T03:52:31;0.40;;;0.40;;
62125;SDS011;48112;53.282;6.150;2022-08-19T03:53:34;0.40;;;0.40;;
62125;SDS011;48112;53.282;6.150;2022-08-19T03:54:36;0.40;;;0.40;;
62125;SDS011;48112;53.282;6.150;2022-08-19T03:55:41;0.50;;;0.50;;
62125;SDS011;48112;53.282;6.150;2022-08-19T03:56:43;0.40;;;0.40;;
62125;SDS011;48112;53.282;6.150;2022-08-19T03:57:47;0.45;;;0.45;;
62125;SDS011;48112;53.282;6.150;2022-08-19T03:58:49;0.45;;;0.45;;
62125;SDS011;48112;53.282;6.150;2022-08-19T03:59:54;0.40;;;0.40;;
62125;SDS011;48112;53.282;6.150;2022-08-19T04:01:14;0.40;;;0.40;;
62125;SDS011;48112;53.282;6.150;2022-08-19T04:02:19;0.40;;;0.40;;
62125;SDS011;48112;53.282;6.150;2022-08-19T04:03:21;0.30;;;0.30;;
62125;SDS011;48112;53.282;6.150;2022-08-19T04:04:24;0.40;;;0.40;;
62125;SDS011;48112;53.282;6.150;2022-08-19T04:05:29;0.40;;;0.40;;
62125;SDS011;48112;53.282;6.150;2022-08-19T04:06:33;0.40;;;0.40;;
62125;SDS011;48112;53.282;6.150;2022-08-19T04:07:40;0.40;;;0.40;;
62125;SDS011;48112;53.282;6.150;2022-08-19T04:08:44;0.47;;;0.47;;
62125;SDS011;48112;53.282;6.150;2022-08-19T04:09:47;0.40;;;0.40;;
62125;SDS011;48112;53.282;6.150;2022-08-19T04:10:53;0.40;;;0.40;;
62125;SDS011;48112;53.282;6.150;2022-08-19T04:11:56;0.40;;;0.40;;
62125;SDS011;48112;53.282;6.150;2022-08-19T04:13:00;0.40;;;0.40;;
62125;SDS011;48112;53.282;6.150;2022-08-19T04:14:03;0.40;;;0.40;;
62125;SDS011;48112;53.282;6.150;2022-08-19T04:15:06;0.50;;;0.50;;
62125;SDS011;48112;53.282;6.150;2022-08-19T04:16:09;0.50;;;0.50;;
62125;SDS011;48112;53.282;6.150;2022-08-19T04:17:11;0.60;;;0.60;;
62125;SDS011;48112;53.282;6.150;2022-08-19T04:18:15;0.50;;;0.50;;
62125;SDS011;48112;53.282;6.150;2022-08-19T04:19:17;0.50;;;0.50;;
62125;SDS011;48112;53.282;6.150;2022-08-19T04:20:21;0.60;;;0.60;;
62125;SDS011;48112;53.282;6.150;2022-08-19T04:21:23;0.55;;;0.55;;
62125;SDS011;48112;53.282;6.150;2022-08-19T04:22:27;0.60;;;0.60;;
62125;SDS011;48112;53.282;6.150;2022-08-19T04:23:30;0.60;;;0.60;;
62125;SDS011;48112;53.282;6.150;2022-08-19T04:24:34;0.50;;;0.50;;
62125;SDS011;48112;53.282;6.150;2022-08-19T04:25:37;0.55;;;0.55;;
62125;SDS011;48112;53.282;6.150;2022-08-19T04:26:43;0.55;;;0.55;;
62125;SDS011;48112;53.282;6.150;2022-08-19T04:27:45;0.60;;;0.60;;
62125;SDS011;48112;53.282;6.150;2022-08-19T04:28:48;0.50;;;0.50;;
62125;SDS011;48112;53.282;6.150;2022-08-19T04:29:51;0.50;;;0.50;;
62125;SDS011;48112;53.282;6.150;2022-08-19T04:30:56;0.50;;;0.50;;
62125;SDS011;48112;53.282;6.150;2022-08-19T04:31:58;0.60;;;0.60;;
62125;SDS011;48112;53.282;6.150;2022-08-19T04:33:10;0.60;;;0.60;;
62125;SDS011;48112;53.282;6.150;2022-08-19T04:34:14;0.50;;;0.50;;
62125;SDS011;48112;53.282;6.150;2022-08-19T04:35:18;0.60;;;0.60;;
62125;SDS011;48112;53.282;6.150;2022-08-19T04:36:26;0.60;;;0.60;;
62125;SDS011;48112;53.282;6.150;2022-08-19T04:37:34;0.60;;;0.60;;
62125;SDS011;48112;53.282;6.150;2022-08-19T04:38:36;0.50;;;0.50;;
62125;SDS011;48112;53.282;6.150;2022-08-19T04:39:39;0.60;;;0.60;;
62125;SDS011;48112;53.282;6.150;2022-08-19T04:41:03;0.60;;;0.60;;
62125;SDS011;48112;53.282;6.150;2022-08-19T04:42:25;0.52;;;0.52;;
62125;SDS011;48112;53.282;6.150;2022-08-19T04:43:42;0.60;;;0.60;;
62125;SDS011;48112;53.282;6.150;2022-08-19T04:44:50;0.60;;;0.60;;
62125;SDS011;48112;53.282;6.150;2022-08-19T04:45:52;0.60;;;0.60;;
62125;SDS011;48112;53.282;6.150;2022-08-19T04:46:57;0.60;;;0.60;;
62125;SDS011;48112;53.282;6.150;2022-08-19T04:47:59;0.70;;;0.70;;
62125;SDS011;48112;53.282;6.150;2022-08-19T04:49:23;0.63;;;0.63;;
62125;SDS011;48112;53.282;6.150;2022-08-19T04:50:26;0.65;;;0.65;;
62125;SDS011;48112;53.282;6.150;2022-08-19T04:51:28;0.60;;;0.60;;
62125;SDS011;48112;53.282;6.150;2022-08-19T04:52:32;0.60;;;0.60;;
62125;SDS011;48112;53.282;6.150;2022-08-19T04:53:34;0.60;;;0.60;;
62125;SDS011;48112;53.282;6.150;2022-08-19T04:54:39;0.60;;;0.60;;
62125;SDS011;48112;53.282;6.150;2022-08-19T04:55:41;0.55;;;0.55;;
62125;SDS011;48112;53.282;6.150;2022-08-19T04:56:44;0.60;;;0.60;;
62125;SDS011;48112;53.282;6.150;2022-08-19T04:57:48;0.55;;;0.55;;
62125;SDS011;48112;53.282;6.150;2022-08-19T04:58:52;0.50;;;0.50;;
62125;SDS011;48112;53.282;6.150;2022-08-19T04:59:55;0.50;;;0.50;;
62125;SDS011;48112;53.282;6.150;2022-08-19T05:00:58;0.60;;;0.60;;
62125;SDS011;48112;53.282;6.150;2022-08-19T05:02:01;0.60;;;0.60;;
62125;SDS011;48112;53.282;6.150;2022-08-19T05:03:05;0.50;;;0.50;;
62125;SDS011;48112;53.282;6.150;2022-08-19T05:04:08;0.60;;;0.60;;
62125;SDS011;48112;53.282;6.150;2022-08-19T05:05:10;0.50;;;0.50;;
62125;SDS011;48112;53.282;6.150;2022-08-19T05:06:14;0.50;;;0.50;;
62125;SDS011;48112;53.282;6.150;2022-08-19T05:07:17;0.60;;;0.60;;
62125;SDS011;48112;53.282;6.150;2022-08-19T05:08:20;0.63;;;0.63;;
62125;SDS011;48112;53.282;6.150;2022-08-19T05:09:31;0.60;;;0.60;;
62125;SDS011;48112;53.282;6.150;2022-08-19T05:10:54;0.70;;;0.70;;
62125;SDS011;48112;53.282;6.150;2022-08-19T05:11:58;0.50;;;0.50;;
62125;SDS011;48112;53.282;6.150;2022-08-19T05:13:02;0.60;;;0.60;;
62125;SDS011;48112;53.282;6.150;2022-08-19T05:14:06;0.60;;;0.60;;
62125;SDS011;48112;53.282;6.150;2022-08-19T05:15:09;0.60;;;0.60;;
62125;SDS011;48112;53.282;6.150;2022-08-19T05:16:12;0.60;;;0.60;;
62125;SDS011;48112;53.282;6.150;2022-08-19T05:17:15;0.60;;;0.60;;
62125;SDS011;48112;53.282;6.150;2022-08-19T05:18:38;0.60;;;0.60;;
62125;SDS011;48112;53.282;6.150;2022-08-19T05:19:59;0.63;;;0.63;;
62125;SDS011;48112;53.282;6.150;2022-08-19T05:21:20;0.70;;;0.70;;
62125;SDS011;48112;53.282;6.150;2022-08-19T05:22:41;0.60;;;0.60;;
62125;SDS011;48112;53.282;6.150;2022-08-19T05:23:45;0.60;;;0.60;;
62125;SDS011;48112;53.282;6.150;2022-08-19T05:24:50;0.60;;;0.60;;
62125;SDS011;48112;53.282;6.150;2022-08-19T05:26:12;0.50;;;0.50;;
62125;SDS011;48112;53.282;6.150;2022-08-19T05:27:15;0.50;;;0.50;;
62125;SDS011;48112;53.282;6.150;2022-08-19T05:28:19;0.50;;;0.50;;
62125;SDS011;48112;53.282;6.150;2022-08-19T05:29:23;0.50;;;0.50;;
62125;SDS011;48112;53.282;6.150;2022-08-19T05:30:33;0.50;;;0.50;;
62125;SDS011;48112;53.282;6.150;2022-08-19T05:31:47;0.50;;;0.50;;
62125;SDS011;48112;53.282;6.150;2022-08-19T05:32:50;0.50;;;0.50;;
62125;SDS011;48112;53.282;6.150;2022-08-19T05:33:55;0.50;;;0.50;;
62125;SDS011;48112;53.282;6.150;2022-08-19T05:34:57;0.50;;;0.50;;
62125;SDS011;48112;53.282;6.150;2022-08-19T05:36:00;0.60;;;0.60;;
62125;SDS011;48112;53.282;6.150;2022-08-19T05:37:04;0.60;;;0.60;;
62125;SDS011;48112;53.282;6.150;2022-08-19T05:38:08;0.40;;;0.40;;
62125;SDS011;48112;53.282;6.150;2022-08-19T05:39:13;0.50;;;0.50;;
62125;SDS011;48112;53.282;6.150;2022-08-19T05:40:18;0.50;;;0.50;;
62125;SDS011;48112;53.282;6.150;2022-08-19T05:41:23;0.45;;;0.45;;
62125;SDS011;48112;53.282;6.150;2022-08-19T05:42:31;0.50;;;0.50;;
62125;SDS011;48112;53.282;6.150;2022-08-19T05:43:36;0.50;;;0.50;;
62125;SDS011;48112;53.282;6.150;2022-08-19T05:44:40;0.40;;;0.40;;
62125;SDS011;48112;53.282;6.150;2022-08-19T05:45:45;0.50;;;0.50;;
62125;SDS011;48112;53.282;6.150;2022-08-19T05:46:47;0.50;;;0.50;;
62125;SDS011;48112;53.282;6.150;2022-08-19T05:47:50;0.50;;;0.50;;
62125;SDS011;48112;53.282;6.150;2022-08-19T05:48:52;0.50;;;0.50;;
62125;SDS011;48112;53.282;6.150;2022-08-19T05:49:57;0.50;;;0.50;;
62125;SDS011;48112;53.282;6.150;2022-08-19T05:51:02;0.50;;;0.50;;
62125;SDS011;48112;53.282;6.150;2022-08-19T05:52:08;0.60;;;0.60;;
62125;SDS011;48112;53.282;6.150;2022-08-19T05:53:13;0.50;;;0.50;;
62125;SDS011;48112;53.282;6.150;2022-08-19T05:54:17;0.50;;;0.50;;
62125;SDS011;48112;53.282;6.150;2022-08-19T05:55:20;0.60;;;0.60;;
62125;SDS011;48112;53.282;6.150;2022-08-19T05:56:23;0.55;;;0.55;;
62125;SDS011;48112;53.282;6.150;2022-08-19T05:57:26;0.60;;;0.60;;
62125;SDS011;48112;53.282;6.150;2022-08-19T05:58:30;0.50;;;0.50;;
62125;SDS011;48112;53.282;6.150;2022-08-19T05:59:35;0.60;;;0.60;;
62125;SDS011;48112;53.282;6.150;2022-08-19T06:00:39;0.50;;;0.50;;
62125;SDS011;48112;53.282;6.150;2022-08-19T06:01:45;0.50;;;0.50;;
62125;SDS011;48112;53.282;6.150;2022-08-19T06:02:51;0.50;;;0.50;;
62125;SDS011;48112;53.282;6.150;2022-08-19T06:03:57;0.50;;;0.50;;
62125;SDS011;48112;53.282;6.150;2022-08-19T06:05:00;0.50;;;0.50;;
62125;SDS011;48112;53.282;6.150;2022-08-19T06:06:03;0.50;;;0.50;;
62125;SDS011;48112;53.282;6.150;2022-08-19T06:07:06;0.50;;;0.50;;
62125;SDS011;48112;53.282;6.150;2022-08-19T06:08:13;0.50;;;0.50;;
62125;SDS011;48112;53.282;6.150;2022-08-19T06:09:15;0.50;;;0.50;;
62125;SDS011;48112;53.282;6.150;2022-08-19T06:10:18;0.50;;;0.50;;
62125;SDS011;48112;53.282;6.150;2022-08-19T06:11:20;0.43;;;0.43;;
62125;SDS011;48112;53.282;6.150;2022-08-19T06:12:24;0.50;;;0.50;;
62125;SDS011;48112;53.282;6.150;2022-08-19T06:13:34;0.50;;;0.50;;
62125;SDS011;48112;53.282;6.150;2022-08-19T06:14:38;0.50;;;0.50;;
62125;SDS011;48112;53.282;6.150;2022-08-19T06:15:42;0.50;;;0.50;;
62125;SDS011;48112;53.282;6.150;2022-08-19T06:16:45;0.40;;;0.40;;
62125;SDS011;48112;53.282;6.150;2022-08-19T06:17:48;0.40;;;0.40;;
62125;SDS011;48112;53.282;6.150;2022-08-19T06:18:51;0.50;;;0.50;;
62125;SDS011;48112;53.282;6.150;2022-08-19T06:19:55;0.40;;;0.40;;
62125;SDS011;48112;53.282;6.150;2022-08-19T06:20:59;0.40;;;0.40;;
62125;SDS011;48112;53.282;6.150;2022-08-19T06:22:05;0.55;;;0.55;;
62125;SDS011;48112;53.282;6.150;2022-08-19T06:23:08;0.50;;;0.50;;
62125;SDS011;48112;53.282;6.150;2022-08-19T06:24:17;0.50;;;0.50;;
62125;SDS011;48112;53.282;6.150;2022-08-19T06:25:24;0.50;;;0.50;;
62125;SDS011;48112;53.282;6.150;2022-08-19T06:26:31;0.50;;;0.50;;
62125;SDS011;48112;53.282;6.150;2022-08-19T06:27:36;0.50;;;0.50;;
62125;SDS011;48112;53.282;6.150;2022-08-19T06:28:59;0.50;;;0.50;;
62125;SDS011;48112;53.282;6.150;2022-08-19T06:30:02;0.50;;;0.50;;
62125;SDS011;48112;53.282;6.150;2022-08-19T06:31:06;0.40;;;0.40;;
62125;SDS011;48112;53.282;6.150;2022-08-19T06:32:09;0.50;;;0.50;;